createdAt,value
2023-12-31T00:05:41.435Z,3.72
2023-12-31T00:15:45.148Z,2.30
2023-12-31T00:25:47.231Z,3.03
2023-12-31T00:35:50.673Z,3.90
2023-12-31T00:45:52.681Z,2.95
2023-12-31T00:55:56.008Z,2.40
2023-12-31T01:06:05.401Z,0.85
2023-12-31T01:16:08.892Z,0.67
2023-12-31T01:26:10.905Z,0.70
2023-12-31T01:36:16.146Z,0.93
2023-12-31T01:46:27.520Z,0.70
2023-12-31T01:56:32.055Z,0.90
2023-12-31T02:06:36.930Z,0.95
2023-12-31T02:16:40.349Z,0.50
2023-12-31T02:26:43.756Z,0.70
2023-12-31T02:36:45.769Z,1.75
2023-12-31T02:46:50.617Z,0.93
2023-12-31T02:56:52.622Z,1.00
2023-12-31T03:06:55.998Z,1.60
2023-12-31T03:16:57.963Z,2.00
2023-12-31T03:27:02.762Z,4.20
2023-12-31T03:37:04.915Z,1.85
2023-12-31T03:47:08.354Z,2.05
2023-12-31T03:57:10.366Z,1.85
2023-12-31T04:07:13.860Z,2.10
2023-12-31T04:17:15.934Z,3.05
2023-12-31T04:27:21.361Z,2.00
2023-12-31T04:37:23.407Z,1.63
2023-12-31T04:47:26.942Z,4.05
2023-12-31T04:57:29.037Z,2.65
2023-12-31T05:07:32.519Z,2.95
2023-12-31T05:17:34.608Z,2.95
2023-12-31T05:27:39.864Z,3.03
2023-12-31T05:37:41.916Z,1.60
2023-12-31T05:47:47.309Z,1.33
2023-12-31T05:57:49.438Z,1.13
2023-12-31T06:07:53.412Z,0.98
2023-12-31T06:17:55.595Z,0.95
2023-12-31T06:27:59.030Z,0.60
2023-12-31T06:38:01.037Z,0.60
2023-12-31T06:48:05.001Z,0.82
2023-12-31T06:58:07.165Z,0.60
2023-12-31T07:08:10.592Z,0.80
2023-12-31T07:18:12.803Z,0.82
2023-12-31T07:28:16.637Z,0.88
2023-12-31T07:38:18.653Z,1.33
2023-12-31T07:48:22.096Z,0.98
2023-12-31T07:58:24.209Z,0.85
2023-12-31T08:08:27.608Z,1.27
2023-12-31T08:18:29.712Z,1.15
2023-12-31T08:28:33.378Z,1.52
2023-12-31T08:38:35.600Z,1.88
2023-12-31T08:48:39.045Z,2.63
2023-12-31T08:58:41.159Z,3.10
2023-12-31T09:08:44.680Z,3.92
2023-12-31T09:18:46.649Z,3.28
2023-12-31T09:28:50.039Z,2.92
2023-12-31T09:38:52.359Z,3.15
2023-12-31T09:48:56.282Z,3.15
2023-12-31T09:59:03.422Z,4.75
2023-12-31T10:09:10.795Z,2.33
2023-12-31T10:19:12.929Z,3.30
2023-12-31T10:29:17.872Z,3.65
2023-12-31T10:39:26.519Z,3.33
2023-12-31T10:49:31.589Z,3.58
2023-12-31T10:59:35.590Z,3.92
2023-12-31T11:09:39.844Z,2.10
2023-12-31T11:20:11.506Z,3.47
2023-12-31T11:30:15.362Z,3.17
2023-12-31T11:40:17.443Z,2.00
2023-12-31T11:50:24.591Z,2.22
2023-12-31T12:00:28.567Z,1.60
2023-12-31T12:10:32.515Z,1.63
2023-12-31T12:20:37.833Z,2.13
2023-12-31T12:30:42.085Z,3.08
2023-12-31T12:40:44.258Z,2.58
2023-12-31T12:50:47.900Z,4.65
2023-12-31T13:00:50.079Z,3.42
2023-12-31T13:10:54.380Z,3.58
2023-12-31T13:20:56.395Z,3.92
2023-12-31T13:31:03.114Z,5.72
2023-12-31T13:41:06.106Z,3.70
2023-12-31T13:51:11.571Z,3.95
2023-12-31T14:01:13.755Z,5.40
2023-12-31T14:11:20.751Z,7.22
2023-12-31T14:21:22.787Z,7.05
2023-12-31T14:31:29.094Z,3.35
2023-12-31T14:41:31.471Z,4.15
2023-12-31T14:51:36.717Z,4.47
2023-12-31T15:01:39.053Z,4.40
2023-12-31T15:11:42.934Z,4.10
2023-12-31T15:21:45.098Z,4.45
2023-12-31T15:31:48.740Z,4.45
2023-12-31T15:41:51.222Z,3.28
2023-12-31T15:51:54.838Z,2.97
2023-12-31T16:01:59.855Z,3.22
2023-12-31T16:12:05.067Z,2.80
2023-12-31T16:22:07.054Z,2.78
2023-12-31T16:32:13.120Z,1.30
2023-12-31T16:42:20.404Z,1.95
2023-12-31T16:52:24.391Z,2.83
2023-12-31T17:02:26.891Z,2.40
2023-12-31T17:12:30.343Z,2.50
2023-12-31T17:22:32.477Z,2.42
2023-12-31T17:32:35.981Z,3.05
2023-12-31T17:42:37.984Z,3.53
2023-12-31T17:52:41.402Z,3.30
2023-12-31T18:02:43.387Z,4.55
2023-12-31T18:12:46.867Z,2.60
2023-12-31T18:22:48.929Z,3.17
2023-12-31T18:32:52.750Z,3.83
2023-12-31T18:42:55.032Z,2.13
2023-12-31T18:52:58.422Z,2.13
2023-12-31T19:03:00.419Z,2.40
2023-12-31T19:13:03.975Z,2.30
2023-12-31T19:23:07.108Z,2.03
2023-12-31T19:33:11.890Z,2.67
2023-12-31T19:43:21.887Z,2.83
2023-12-31T19:53:34.636Z,2.65
2023-12-31T20:03:36.733Z,2.88
2023-12-31T20:13:40.175Z,2.50
2023-12-31T20:23:42.206Z,2.35
2023-12-31T20:33:45.945Z,2.10
2023-12-31T20:43:48.163Z,3.33
2023-12-31T20:53:51.733Z,2.53
2023-12-31T21:03:53.808Z,2.53
2023-12-31T21:13:57.267Z,2.35
2023-12-31T21:23:59.248Z,1.80
2023-12-31T21:34:04.941Z,2.72
2023-12-31T21:44:08.263Z,2.70
2023-12-31T21:54:11.639Z,2.70
2023-12-31T22:04:13.875Z,3.50
2023-12-31T22:14:17.298Z,2.75
2023-12-31T22:24:19.376Z,3.28
2023-12-31T22:34:22.974Z,3.85
2023-12-31T22:44:24.984Z,3.40
2023-12-31T22:54:28.375Z,3.10
2023-12-31T23:04:30.438Z,3.63
2023-12-31T23:14:33.881Z,4.95
2023-12-31T23:24:35.971Z,3.90
2023-12-31T23:34:39.653Z,3.45
2023-12-31T23:44:42.142Z,2.83
2023-12-31T23:54:45.534Z,2.60
